createdAt,value
2019-04-23T00:03:47.258Z,0.80
2019-04-23T00:06:19.199Z,1.07
2019-04-23T00:09:05.526Z,0.93
2019-04-23T00:11:17.195Z,1.20
2019-04-23T00:16:17.014Z,1.00
2019-04-23T00:21:13.754Z,0.90
2019-04-23T00:23:47.865Z,1.10
2019-04-23T00:26:08.037Z,1.30
2019-04-23T00:28:45.616Z,1.10
2019-04-23T00:31:13.411Z,1.10
2019-04-23T00:33:34.604Z,0.93
2019-04-23T00:36:03.439Z,1.32
2019-04-23T00:38:38.695Z,1.10
2019-04-23T00:41:01.657Z,0.98
2019-04-23T00:43:27.253Z,1.00
2019-04-23T00:48:43.982Z,1.05
2019-04-23T00:53:22.096Z,1.07
2019-04-23T00:55:47.751Z,1.22
2019-04-23T00:58:22.135Z,1.40
2019-04-23T01:00:47.335Z,1.20
2019-04-23T01:03:12.572Z,1.55
2019-04-23T01:05:41.090Z,1.20
2019-04-23T01:08:12.961Z,1.20
2019-04-23T01:10:50.800Z,1.72
2019-04-23T01:13:08.916Z,1.20
2019-04-23T01:15:53.742Z,1.22
2019-04-23T01:18:10.908Z,0.85
2019-04-23T01:20:39.128Z,0.88
2019-04-23T01:22:46.438Z,0.90
2019-04-23T01:25:27.856Z,1.22
2019-04-23T01:28:15.934Z,1.00
2019-04-23T01:30:47.510Z,1.15
2019-04-23T01:33:18.385Z,0.82
2019-04-23T01:35:43.065Z,0.98
2019-04-23T01:38:04.460Z,1.10
2019-04-23T01:40:36.460Z,1.40
2019-04-23T01:43:02.759Z,1.40
2019-04-23T01:48:00.096Z,0.90
2019-04-23T01:50:37.606Z,0.80
2019-04-23T01:58:06.991Z,1.15
2019-04-23T02:00:29.215Z,1.22
2019-04-23T02:02:55.546Z,1.07
2019-04-23T02:07:56.366Z,1.20
2019-04-23T02:10:39.502Z,1.20
2019-04-23T02:12:53.608Z,1.05
2019-04-23T02:15:18.547Z,1.00
2019-04-23T02:17:44.312Z,1.10
2019-04-23T02:20:17.782Z,1.52
2019-04-23T02:22:56.266Z,1.10
2019-04-23T02:25:15.779Z,0.90
2019-04-23T02:27:46.704Z,0.82
2019-04-23T02:30:26.622Z,1.05
2019-04-23T02:32:45.864Z,1.00
2019-04-23T02:35:20.773Z,1.40
2019-04-23T02:37:54.244Z,1.05
2019-04-23T02:40:30.384Z,1.02
2019-04-23T02:43:01.272Z,0.95
2019-04-23T02:45:02.627Z,1.07
2019-04-23T02:47:36.565Z,1.10
2019-04-23T02:50:09.395Z,1.20
2019-04-23T02:54:56.724Z,1.10
2019-04-23T02:57:20.357Z,1.37
2019-04-23T03:00:05.746Z,1.25
2019-04-23T03:02:37.043Z,1.60
2019-04-23T03:04:51.631Z,1.40
2019-04-23T03:07:26.742Z,1.00
2019-04-23T03:09:45.505Z,0.90
2019-04-23T03:12:18.528Z,0.85
2019-04-23T03:14:55.829Z,1.17
2019-04-23T03:17:27.162Z,1.10
2019-04-23T03:20:15.228Z,1.37
2019-04-23T03:23:02.674Z,0.90
2019-04-23T03:27:50.004Z,1.20
2019-04-23T03:30:26.680Z,1.00
2019-04-23T03:33:58.799Z,1.02
2019-04-23T03:35:10.537Z,1.20
2019-04-23T03:40:13.285Z,1.42
2019-04-23T03:42:42.484Z,1.12
2019-04-23T03:45:16.635Z,0.98
2019-04-23T03:47:32.531Z,1.22
2019-04-23T03:50:05.284Z,1.52
2019-04-23T03:56:00.472Z,1.20
2019-04-23T03:57:25.293Z,2.00
2019-04-23T04:02:39.836Z,1.52
2019-04-23T04:04:55.839Z,1.12
2019-04-23T04:09:47.942Z,1.32
2019-04-23T04:12:25.052Z,1.57
2019-04-23T04:14:47.399Z,1.70
2019-04-23T04:19:44.467Z,1.32
2019-04-23T04:22:29.233Z,1.60
2019-04-23T04:27:05.719Z,1.30
2019-04-23T04:29:40.374Z,1.00
2019-04-23T04:32:02.632Z,1.30
2019-04-23T04:37:32.071Z,1.30
2019-04-23T04:39:34.019Z,1.40
2019-04-23T04:52:11.239Z,1.42
2019-04-23T04:59:11.921Z,1.70
2019-04-23T05:01:39.618Z,1.80
2019-04-23T05:04:18.217Z,1.40
2019-04-23T05:09:00.656Z,1.60
2019-04-23T05:11:44.504Z,1.65
2019-04-23T05:14:08.575Z,1.75
2019-04-23T05:19:04.141Z,1.70
2019-04-23T05:26:23.917Z,2.00
2019-04-23T05:28:58.571Z,1.87
2019-04-23T05:33:41.554Z,1.30
2019-04-23T05:38:56.291Z,1.15
2019-04-23T05:41:10.102Z,1.35
2019-04-23T05:43:43.535Z,2.52
2019-04-23T05:46:04.718Z,2.12
2019-04-23T05:48:35.476Z,2.12
2019-04-23T05:51:04.851Z,2.02
2019-04-23T05:53:26.997Z,2.30
2019-04-23T05:55:55.344Z,1.60
2019-04-23T06:01:27.918Z,3.02
2019-04-23T06:03:24.846Z,1.55
2019-04-23T06:06:01.194Z,1.70
2019-04-23T06:08:25.612Z,1.77
2019-04-23T06:10:58.688Z,1.80
2019-04-23T06:13:18.623Z,1.47
2019-04-23T06:15:46.635Z,1.22
2019-04-23T06:18:25.414Z,1.37
2019-04-23T06:20:54.248Z,1.35
2019-04-23T06:23:13.340Z,2.62
2019-04-23T06:25:59.680Z,1.87
2019-04-23T06:33:11.175Z,3.02
2019-04-23T06:35:37.683Z,2.47
2019-04-23T06:40:35.832Z,1.75
2019-04-23T06:43:05.073Z,2.25
2019-04-23T06:45:32.212Z,2.52
2019-04-23T06:48:08.809Z,2.10
2019-04-23T06:50:34.657Z,2.65
2019-04-23T06:52:56.033Z,2.50
2019-04-23T06:55:31.842Z,2.17
2019-04-23T06:57:55.247Z,1.92
2019-04-23T07:00:29.518Z,2.20
2019-04-23T07:02:56.675Z,2.40
2019-04-23T07:05:27.637Z,2.50
2019-04-23T07:07:50.021Z,2.87
2019-04-23T07:10:18.710Z,2.58
2019-04-23T07:12:50.691Z,2.80
2019-04-23T07:15:32.308Z,2.70
2019-04-23T07:17:39.696Z,2.40
2019-04-23T07:20:12.804Z,2.60
2019-04-23T07:22:34.869Z,3.10
2019-04-23T07:25:07.786Z,3.25
2019-04-23T07:27:31.792Z,2.60
2019-04-23T07:30:08.379Z,2.37
2019-04-23T07:32:32.824Z,2.95
2019-04-23T07:37:34.377Z,3.60
2019-04-23T07:42:53.034Z,2.60
2019-04-23T07:45:29.625Z,2.80
2019-04-23T07:48:12.403Z,4.90
2019-04-23T07:50:39.421Z,3.20
2019-04-23T07:55:43.570Z,2.80
2019-04-23T07:58:06.652Z,3.22
2019-04-23T08:00:41.783Z,3.83
2019-04-23T08:03:10.966Z,2.62
2019-04-23T08:08:01.629Z,2.87
2019-04-23T08:10:28.045Z,3.22
2019-04-23T08:13:04.549Z,3.83
2019-04-23T08:15:29.600Z,3.80
2019-04-23T08:17:51.215Z,2.70
2019-04-23T08:20:24.728Z,2.87
2019-04-23T08:22:47.783Z,3.70
2019-04-23T08:25:25.671Z,3.37
2019-04-23T08:27:57.730Z,3.30
2019-04-23T08:30:25.552Z,2.30
2019-04-23T08:32:52.177Z,3.00
2019-04-23T08:35:41.680Z,3.40
2019-04-23T08:40:25.268Z,4.40
2019-04-23T08:43:03.621Z,2.83
2019-04-23T08:45:28.017Z,3.15
2019-04-23T08:48:00.774Z,3.58
2019-04-23T08:50:27.627Z,2.47
2019-04-23T08:52:53.956Z,3.67
2019-04-23T08:57:43.066Z,2.70
2019-04-23T09:00:24.757Z,2.80
2019-04-23T09:02:47.692Z,4.05
2019-04-23T09:05:28.670Z,3.10
2019-04-23T09:07:46.778Z,3.25
2019-04-23T09:10:17.840Z,3.30
2019-04-23T09:15:09.974Z,3.72
2019-04-23T09:17:42.872Z,3.20
2019-04-23T09:22:34.591Z,3.12
2019-04-23T09:25:04.027Z,4.10
2019-04-23T09:27:38.841Z,3.75
2019-04-23T09:32:24.913Z,5.70
2019-04-23T09:35:05.992Z,3.60
2019-04-23T09:40:10.507Z,4.35
2019-04-23T09:45:26.860Z,3.72
2019-04-23T09:53:06.334Z,3.58
2019-04-23T09:55:32.227Z,4.47
2019-04-23T09:57:52.288Z,3.45
2019-04-23T10:00:27.785Z,3.10
2019-04-23T10:02:34.068Z,3.30
2019-04-23T10:05:01.388Z,3.00
2019-04-23T10:07:27.152Z,4.70
2019-04-23T10:09:42.508Z,3.80
2019-04-23T10:12:09.541Z,2.25
2019-04-23T10:14:36.720Z,3.35
2019-04-23T10:17:04.285Z,2.90
2019-04-23T10:19:30.818Z,3.33
2019-04-23T10:21:57.530Z,4.20
2019-04-23T10:24:25.223Z,3.45
2019-04-23T10:26:52.264Z,2.72
2019-04-23T10:29:20.539Z,3.98
2019-04-23T10:31:46.662Z,3.22
2019-04-23T10:34:12.789Z,3.90
2019-04-23T10:36:40.622Z,2.85
2019-04-23T10:39:14.976Z,3.70
2019-04-23T10:41:37.805Z,5.15
2019-04-23T10:44:23.518Z,5.50
2019-04-23T10:47:30.484Z,5.00
2019-04-23T10:50:18.528Z,3.95
2019-04-23T10:52:36.379Z,3.37
2019-04-23T10:55:06.258Z,2.98
2019-04-23T10:57:51.060Z,3.40
2019-04-23T10:59:54.157Z,3.00
2019-04-23T11:02:39.134Z,4.17
2019-04-23T11:05:11.485Z,4.28
2019-04-23T11:12:36.995Z,4.80
2019-04-23T11:15:09.003Z,3.60
2019-04-23T11:17:33.099Z,3.60
2019-04-23T11:20:07.698Z,3.45
2019-04-23T11:25:04.156Z,4.20
2019-04-23T11:27:24.323Z,5.35
2019-04-23T11:29:48.708Z,5.03
2019-04-23T11:32:40.814Z,4.58
2019-04-23T11:37:12.976Z,3.92
2019-04-23T11:44:41.506Z,4.12
2019-04-23T11:49:53.505Z,5.53
2019-04-23T11:54:30.655Z,4.33
2019-04-23T11:57:22.448Z,3.22
2019-04-23T12:02:05.367Z,5.25
2019-04-23T12:04:26.295Z,4.70
2019-04-23T12:07:00.660Z,5.37
2019-04-23T12:09:46.496Z,3.80
2019-04-23T12:12:31.171Z,4.65
2019-04-23T12:32:42.982Z,3.35
2019-04-23T12:37:35.087Z,2.98
2019-04-23T12:40:00.967Z,4.05
2019-04-23T12:44:56.363Z,5.00
2019-04-23T12:47:36.297Z,4.20
2019-04-23T12:50:05.004Z,4.90
2019-04-23T12:52:17.145Z,4.97
2019-04-23T12:54:59.020Z,3.65
2019-04-23T12:57:17.454Z,5.03
2019-04-23T12:59:44.616Z,5.70
2019-04-23T13:02:19.879Z,5.33
2019-04-23T13:04:42.093Z,3.98
2019-04-23T13:07:11.445Z,5.53
2019-04-23T13:09:49.259Z,5.25
2019-04-23T13:12:14.216Z,4.15
2019-04-23T13:14:42.026Z,4.70
2019-04-23T13:17:12.569Z,3.45
2019-04-23T13:24:33.066Z,4.92
2019-04-23T13:27:02.566Z,4.72
2019-04-23T13:29:37.987Z,5.65
2019-04-23T13:31:59.222Z,4.92
2019-04-23T13:34:34.778Z,4.28
2019-04-23T13:36:51.313Z,4.50
2019-04-23T13:39:29.081Z,4.37
2019-04-23T13:41:47.819Z,4.85
2019-04-23T13:44:16.376Z,3.90
2019-04-23T13:46:39.753Z,5.58
2019-04-23T13:49:16.643Z,3.37
2019-04-23T13:51:39.975Z,2.77
2019-04-23T13:57:05.854Z,3.75
2019-04-23T13:59:21.757Z,3.90
2019-04-23T14:01:40.020Z,3.75
2019-04-23T14:04:38.876Z,4.45
2019-04-23T14:06:51.964Z,3.25
2019-04-23T14:09:20.066Z,4.28
2019-04-23T14:11:58.617Z,3.10
2019-04-23T14:14:25.397Z,3.47
2019-04-23T14:16:50.038Z,3.12
2019-04-23T14:19:28.086Z,2.77
2019-04-23T14:21:47.197Z,3.70
2019-04-23T14:24:19.524Z,2.52
2019-04-23T14:29:09.587Z,4.10
2019-04-23T14:31:35.974Z,3.55
2019-04-23T14:34:06.471Z,3.77
2019-04-23T14:36:55.535Z,2.10
2019-04-23T14:39:05.719Z,2.15
2019-04-23T14:41:45.029Z,4.10
2019-04-23T14:44:00.695Z,3.00
2019-04-23T14:48:57.942Z,2.95
2019-04-23T14:53:48.701Z,2.80
2019-04-23T14:56:17.010Z,4.15
2019-04-23T14:58:58.235Z,3.52
2019-04-23T15:01:30.293Z,3.30
2019-04-23T15:06:21.361Z,3.22
2019-04-23T15:11:20.902Z,2.45
2019-04-23T15:13:42.787Z,3.35
2019-04-23T15:18:44.491Z,3.67
2019-04-23T15:21:42.916Z,2.90
2019-04-23T15:27:02.371Z,3.20
2019-04-23T15:28:15.012Z,3.83
2019-04-23T15:31:15.430Z,3.20
2019-04-23T15:33:46.656Z,2.95
2019-04-23T15:36:24.096Z,3.12
2019-04-23T15:38:53.223Z,3.20
2019-04-23T15:41:01.238Z,2.47
2019-04-23T15:43:49.537Z,3.15
2019-04-23T15:46:04.371Z,3.77
2019-04-23T15:48:22.556Z,2.75
2019-04-23T15:50:51.577Z,3.62
2019-04-23T15:53:15.633Z,3.37
2019-04-23T15:55:56.530Z,3.30
2019-04-23T16:00:48.165Z,2.70
2019-04-23T16:02:50.949Z,3.55
2019-04-23T16:05:20.220Z,3.15
2019-04-23T16:08:01.623Z,3.15
2019-04-23T16:10:47.560Z,4.20
2019-04-23T16:13:14.909Z,3.70
2019-04-23T16:18:32.287Z,4.25
2019-04-23T16:21:03.767Z,2.90
2019-04-23T16:23:24.259Z,3.33
2019-04-23T16:25:55.281Z,3.52
2019-04-23T16:28:18.932Z,3.02
2019-04-23T16:30:46.243Z,3.58
2019-04-23T16:33:20.205Z,3.55
2019-04-23T16:35:52.720Z,3.17
2019-04-23T16:45:36.911Z,3.87
2019-04-23T16:48:26.427Z,3.25
2019-04-23T16:50:57.816Z,2.58
2019-04-23T16:53:11.648Z,3.70
2019-04-23T16:55:38.348Z,3.12
2019-04-23T16:58:18.383Z,3.00
2019-04-23T17:00:38.350Z,2.50
2019-04-23T17:03:11.269Z,2.80
2019-04-23T17:05:31.521Z,2.55
2019-04-23T17:08:30.940Z,3.22
2019-04-23T17:10:33.566Z,2.40
2019-04-23T17:15:27.409Z,3.05
2019-04-23T17:17:55.843Z,2.90
2019-04-23T17:20:28.679Z,2.90
2019-04-23T17:22:59.554Z,3.42
2019-04-23T17:25:24.822Z,3.05
2019-04-23T17:27:48.498Z,3.00
2019-04-23T17:33:02.124Z,3.33
2019-04-23T17:35:27.456Z,3.17
2019-04-23T17:38:17.381Z,2.85
2019-04-23T17:42:50.883Z,2.85
2019-04-23T17:48:13.443Z,3.42
2019-04-23T17:50:42.022Z,3.42
2019-04-23T17:53:11.012Z,3.12
2019-04-23T17:55:48.369Z,3.98
2019-04-23T17:58:16.346Z,3.10
2019-04-23T18:00:40.916Z,3.85
2019-04-23T18:05:33.650Z,2.70
2019-04-23T18:08:09.949Z,2.70
2019-04-23T18:15:31.155Z,3.25
2019-04-23T18:18:02.728Z,2.83
2019-04-23T18:20:29.658Z,3.12
2019-04-23T18:23:09.575Z,3.00
2019-04-23T18:25:33.275Z,3.10
2019-04-23T18:27:54.221Z,2.90
2019-04-23T18:30:26.051Z,3.20
2019-04-23T18:38:07.295Z,3.23
2019-04-23T18:40:42.005Z,3.00
2019-04-23T18:43:07.339Z,4.20
2019-04-23T18:45:39.597Z,3.77
2019-04-23T18:48:26.880Z,3.37
2019-04-23T18:53:22.682Z,3.10
2019-04-23T18:55:52.606Z,3.95
2019-04-23T18:58:08.445Z,3.00
2019-04-23T19:00:57.064Z,2.87
2019-04-23T19:03:19.987Z,2.90
2019-04-23T19:06:15.306Z,3.22
2019-04-23T19:11:33.956Z,3.65
2019-04-23T19:13:47.710Z,2.95
2019-04-23T19:16:21.411Z,2.90
2019-04-23T19:18:52.641Z,3.83
2019-04-23T19:23:47.631Z,4.03
2019-04-23T19:26:24.550Z,7.08
2019-04-23T19:31:25.149Z,16.73
2019-04-23T19:33:53.456Z,10.78
2019-04-23T19:36:26.208Z,8.88
2019-04-23T19:38:49.281Z,7.40
2019-04-23T19:41:37.322Z,5.60
2019-04-23T19:43:49.168Z,5.37
2019-04-23T19:51:08.857Z,3.55
2019-04-23T19:58:39.732Z,3.75
2019-04-23T20:03:37.781Z,4.20
2019-04-23T20:06:00.470Z,3.80
2019-04-23T20:08:33.990Z,3.60
2019-04-23T20:10:54.378Z,4.15
2019-04-23T20:13:35.273Z,4.62
2019-04-23T20:18:25.217Z,3.77
2019-04-23T20:20:49.740Z,3.45
2019-04-23T20:23:24.685Z,3.40
2019-04-23T20:26:12.161Z,3.50
2019-04-23T20:28:24.133Z,3.62
2019-04-23T20:31:50.498Z,3.62
2019-04-23T20:33:55.456Z,3.00
2019-04-23T20:36:07.191Z,3.58
2019-04-23T20:38:43.401Z,4.03
2019-04-23T20:41:38.481Z,3.62
2019-04-23T20:43:55.676Z,3.95
2019-04-23T20:46:29.711Z,4.75
2019-04-23T20:49:03.985Z,3.85
2019-04-23T20:51:18.732Z,4.35
2019-04-23T20:53:49.646Z,3.00
2019-04-23T20:56:17.663Z,4.35
2019-04-23T20:59:03.415Z,3.90
2019-04-23T21:01:48.148Z,4.10
2019-04-23T21:04:00.106Z,4.12
2019-04-23T21:06:37.869Z,4.22
2019-04-23T21:09:19.563Z,3.47
2019-04-23T21:16:31.061Z,4.05
2019-04-23T21:18:55.079Z,3.98
2019-04-23T21:21:27.901Z,4.08
2019-04-23T21:26:08.394Z,4.25
2019-04-23T21:28:49.132Z,4.20
2019-04-23T21:31:11.451Z,4.00
2019-04-23T21:34:03.235Z,3.47
2019-04-23T21:44:08.584Z,4.70
2019-04-23T21:46:28.025Z,3.87
2019-04-23T21:51:45.956Z,4.78
2019-04-23T21:53:53.204Z,4.33
2019-04-23T21:58:59.483Z,5.28
2019-04-23T22:01:37.115Z,4.30
2019-04-23T22:06:22.157Z,4.70
2019-04-23T22:08:56.328Z,5.12
2019-04-23T22:11:39.396Z,4.62
2019-04-23T22:13:55.436Z,4.47
2019-04-23T22:18:48.496Z,5.20
2019-04-23T22:21:15.937Z,4.35
2019-04-23T22:23:41.915Z,4.20
2019-04-23T22:26:07.923Z,4.22
2019-04-23T22:28:40.532Z,4.55
2019-04-23T22:31:10.802Z,5.47
2019-04-23T22:33:29.106Z,4.62
2019-04-23T22:36:10.046Z,5.08
2019-04-23T22:38:33.540Z,4.95
2019-04-23T22:40:58.147Z,5.03
2019-04-23T22:43:22.199Z,4.80
2019-04-23T22:48:29.596Z,4.80
2019-04-23T22:50:56.768Z,5.75
2019-04-23T22:53:20.515Z,4.42
2019-04-23T22:55:49.649Z,4.85
2019-04-23T23:00:49.828Z,4.10
2019-04-23T23:03:16.942Z,5.25
2019-04-23T23:05:56.218Z,5.33
2019-04-23T23:08:24.000Z,5.50
2019-04-23T23:10:44.213Z,4.58
2019-04-23T23:15:41.742Z,5.30
2019-04-23T23:20:36.075Z,4.97
2019-04-23T23:23:13.110Z,5.12
2019-04-23T23:25:30.495Z,6.15
2019-04-23T23:28:05.781Z,4.35
2019-04-23T23:30:37.516Z,4.80
2019-04-23T23:33:04.115Z,5.25
2019-04-23T23:37:59.109Z,5.17
2019-04-23T23:43:05.715Z,6.22
2019-04-23T23:47:52.275Z,5.55
2019-04-23T23:50:21.470Z,5.05
2019-04-23T23:52:59.688Z,5.03
2019-04-23T23:55:16.086Z,5.17
2019-04-23T23:57:57.998Z,6.28
